West Farms, New York
Current Conditions -  °F | °C
As of 5:51 PM on Friday 19 Dec 2014 (Local Time) from KLGA Reporting Station
Scattered Clouds Scattered Clouds  
Wind Chill: 23°   Ceiling: Unl
Heat Index: 34°   Visibility: 10mi
Dew Point: 22°   Wind: 18mph
Humidity: 61%   Direction: 320°NW
Pressure: 30.12"   Gusts: 26mph
Location:  40.8446°N, 73.88°W
Report Text: KLGA 192251Z 32016G23KT 10SM SCT040 01/M06 A3012 RMK AO2 SLP197 T00111056
Loading
Personal Weather Stations






























Interactive Weather Map New forecast layout! Learn more

10-Day Weather Forecast

Advertisements
Track Severe Weather on mobile